Roy, Louisiana
Current Conditions -  °F | °C
As of 12:15 PM on Sunday 25 Jan 2015 (Local Time) from KMNE Reporting Station
Clear Clear  
Wind Chill: 17°   Ceiling: Unl
Heat Index: 17°   Visibility: 10mi
Dew Point:   Wind: 12mph
Humidity: 42%   Direction: 270°W
Pressure: 29.87"   Gusts: 17mph
Location:  32.2628°N, 93.0795°W
Report Text: KMNE 251815Z AUTO 27010G15KT 10SM CLR 17/04 A2987 RMK AO2 T01720041
Loading
Personal Weather Stations






























Interactive Weather Map New forecast layout! Learn more

10-Day Weather Forecast

Advertisements
Track Severe Weather on mobile